createdAt,value
2023-05-13T00:00:10.729Z,2.60
2023-05-13T00:02:39.165Z,2.73
2023-05-13T00:05:09.191Z,2.77
2023-05-13T00:07:39.423Z,3.20
2023-05-13T00:10:11.814Z,2.83
2023-05-13T00:12:40.428Z,2.80
2023-05-13T00:15:10.206Z,3.00
2023-05-13T00:17:38.795Z,2.47
2023-05-13T00:20:09.309Z,2.70
2023-05-13T00:22:39.239Z,3.20
2023-05-13T00:25:08.076Z,3.60
2023-05-13T00:27:36.552Z,4.00
2023-05-13T00:30:06.460Z,4.23
2023-05-13T00:32:34.880Z,3.80
2023-05-13T00:35:03.980Z,3.60
2023-05-13T00:37:32.358Z,3.77
2023-05-13T00:40:03.449Z,3.60
2023-05-13T00:42:31.908Z,3.53
2023-05-13T00:45:00.258Z,3.17
2023-05-13T00:47:28.747Z,2.80
2023-05-13T00:49:58.635Z,2.97
2023-05-13T00:52:27.154Z,3.00
2023-05-13T00:54:55.450Z,3.00
2023-05-13T00:57:25.593Z,2.93
2023-05-13T00:59:54.504Z,2.37
2023-05-13T01:02:38.567Z,2.80
2023-05-13T01:05:16.879Z,2.53
2023-05-13T01:08:01.490Z,2.70
2023-05-13T01:10:37.567Z,2.57
2023-05-13T01:13:13.431Z,2.90
2023-05-13T01:15:49.142Z,3.07
2023-05-13T01:18:28.472Z,2.73
2023-05-13T01:20:58.310Z,2.80
2023-05-13T01:23:28.173Z,2.80
2023-05-13T01:25:56.676Z,2.70
2023-05-13T01:28:26.095Z,2.83
2023-05-13T01:30:57.250Z,2.67
2023-05-13T01:33:28.048Z,3.03
2023-05-13T01:35:56.856Z,2.90
2023-05-13T01:38:28.765Z,2.90
2023-05-13T01:41:00.132Z,2.43
2023-05-13T01:43:30.648Z,2.67
2023-05-13T01:46:00.440Z,2.90
2023-05-13T01:48:29.247Z,3.00
2023-05-13T01:50:59.292Z,2.80
2023-05-13T01:53:29.009Z,2.70
2023-05-13T01:55:57.503Z,3.03
2023-05-13T01:58:26.044Z,3.50
2023-05-13T02:00:54.445Z,3.03
2023-05-13T02:03:22.945Z,3.40
2023-05-13T02:05:51.607Z,3.30
2023-05-13T02:08:21.659Z,2.87
2023-05-13T02:10:57.897Z,3.27
2023-05-13T02:13:27.154Z,3.27
2023-05-13T02:15:55.716Z,3.13
2023-05-13T02:18:24.371Z,3.30
2023-05-13T02:20:52.923Z,2.97
2023-05-13T02:23:21.378Z,3.20
2023-05-13T02:25:49.923Z,3.10
2023-05-13T02:28:20.118Z,3.23
2023-05-13T02:30:48.540Z,3.00
2023-05-13T02:33:17.340Z,3.17
2023-05-13T02:35:45.845Z,3.43
2023-05-13T02:38:14.440Z,3.07
2023-05-13T02:40:44.312Z,3.10
2023-05-13T02:43:13.075Z,3.37
2023-05-13T02:45:50.834Z,3.13
2023-05-13T02:48:19.204Z,3.00
2023-05-13T02:50:47.856Z,3.30
2023-05-13T02:53:16.472Z,3.40
2023-05-13T02:55:51.572Z,3.10
2023-05-13T02:58:20.039Z,3.40
2023-05-13T03:00:51.008Z,3.10
2023-05-13T03:03:19.408Z,2.90
2023-05-13T03:05:47.850Z,3.47
2023-05-13T03:08:16.608Z,3.57
2023-05-13T03:10:45.261Z,3.37
2023-05-13T03:13:14.035Z,3.70
2023-05-13T03:15:44.381Z,3.40
2023-05-13T03:18:15.283Z,3.23
2023-05-13T03:20:44.458Z,3.43
2023-05-13T03:23:13.108Z,3.70
2023-05-13T03:25:43.679Z,3.17
2023-05-13T03:28:12.267Z,3.80
2023-05-13T03:30:44.327Z,3.83
2023-05-13T03:33:18.767Z,3.77
2023-05-13T03:35:49.060Z,3.40
2023-05-13T03:38:19.777Z,3.60
2023-05-13T03:40:51.730Z,3.13
2023-05-13T03:43:20.669Z,3.00
2023-05-13T03:45:55.108Z,2.67
2023-05-13T03:48:26.489Z,3.20
2023-05-13T03:50:57.063Z,2.77
2023-05-13T03:53:26.339Z,2.80
2023-05-13T03:55:56.432Z,3.20
2023-05-13T03:58:24.883Z,3.17
2023-05-13T04:00:53.529Z,3.17
2023-05-13T04:03:22.138Z,3.63
2023-05-13T04:05:53.201Z,3.80
2023-05-13T04:08:21.689Z,3.30
2023-05-13T04:10:51.126Z,3.73
2023-05-13T04:13:20.769Z,3.20
2023-05-13T04:15:49.901Z,3.10
2023-05-13T04:18:18.265Z,3.10
2023-05-13T04:20:46.863Z,3.33
2023-05-13T04:23:16.553Z,3.50
2023-05-13T04:25:44.896Z,3.23
2023-05-13T04:28:13.492Z,3.77
2023-05-13T04:30:44.650Z,3.80
2023-05-13T04:33:14.093Z,4.07
2023-05-13T04:35:45.814Z,3.40
2023-05-13T04:38:16.353Z,3.43
2023-05-13T04:40:45.749Z,3.47
2023-05-13T04:43:17.471Z,3.53
2023-05-13T04:45:53.428Z,3.33
2023-05-13T04:48:22.177Z,3.03
2023-05-13T04:50:52.910Z,3.50
2023-05-13T04:53:23.589Z,3.27
2023-05-13T04:55:52.477Z,2.83
2023-05-13T04:58:20.829Z,2.90
2023-05-13T05:00:49.312Z,2.67
2023-05-13T05:03:17.651Z,2.83
2023-05-13T05:05:46.236Z,2.40
2023-05-13T05:08:16.370Z,2.40
2023-05-13T05:10:47.660Z,2.00
2023-05-13T05:13:16.787Z,2.03
2023-05-13T05:15:45.803Z,2.23
2023-05-13T05:18:16.006Z,2.27
2023-05-13T05:20:47.668Z,2.43
2023-05-13T05:23:18.960Z,2.23
2023-05-13T05:25:53.232Z,2.00
2023-05-13T05:28:29.732Z,2.30
2023-05-13T05:30:58.436Z,2.57
2023-05-13T05:33:29.247Z,2.77
2023-05-13T05:35:57.998Z,2.60
2023-05-13T05:38:26.358Z,2.70
2023-05-13T05:40:58.593Z,2.47
2023-05-13T05:43:27.220Z,2.60
2023-05-13T05:45:55.668Z,2.80
2023-05-13T05:48:24.337Z,2.80
2023-05-13T05:50:53.432Z,2.77
2023-05-13T05:53:27.986Z,2.80
2023-05-13T05:55:57.773Z,2.70
2023-05-13T05:58:27.160Z,2.77
2023-05-13T06:00:57.013Z,2.77
2023-05-13T06:03:25.864Z,3.03
2023-05-13T06:05:54.768Z,2.70
2023-05-13T06:08:30.001Z,2.67
2023-05-13T06:11:00.839Z,3.10
2023-05-13T06:13:29.622Z,2.83
2023-05-13T06:15:58.153Z,2.93
2023-05-13T06:18:27.495Z,3.30
2023-05-13T06:20:56.085Z,3.10
2023-05-13T06:23:24.427Z,3.10
2023-05-13T06:25:53.817Z,3.17
2023-05-13T06:28:24.102Z,3.40
2023-05-13T06:30:53.813Z,3.63
2023-05-13T06:33:22.496Z,3.90
2023-05-13T06:35:50.950Z,4.13
2023-05-13T06:38:22.770Z,4.70
2023-05-13T06:40:55.246Z,4.60
2023-05-13T06:43:31.576Z,4.70
2023-05-13T06:46:01.820Z,4.60
2023-05-13T06:48:30.996Z,4.33
2023-05-13T06:50:59.629Z,4.07
2023-05-13T06:53:28.292Z,3.50
2023-05-13T06:55:56.571Z,3.97
2023-05-13T06:58:25.052Z,3.90
2023-05-13T07:00:55.193Z,3.70
2023-05-13T07:03:23.641Z,3.73
2023-05-13T07:05:52.382Z,3.70
2023-05-13T07:08:21.108Z,3.80
2023-05-13T07:10:49.444Z,3.87
2023-05-13T07:13:20.042Z,3.43
2023-05-13T07:15:48.790Z,3.40
2023-05-13T07:18:19.029Z,3.03
2023-05-13T07:20:47.809Z,3.57
2023-05-13T07:23:16.338Z,3.93
2023-05-13T07:25:44.685Z,3.90
2023-05-13T07:28:13.017Z,3.53
2023-05-13T07:30:42.153Z,4.07
2023-05-13T07:33:10.871Z,3.77
2023-05-13T07:35:41.312Z,3.57
2023-05-13T07:38:12.463Z,3.60
2023-05-13T07:40:41.316Z,3.63
2023-05-13T07:43:10.094Z,3.40
2023-05-13T07:45:39.267Z,3.60
2023-05-13T07:48:10.033Z,3.83
2023-05-13T07:50:40.294Z,4.27
2023-05-13T07:53:08.717Z,3.90
2023-05-13T07:55:37.137Z,3.80
2023-05-13T07:58:06.482Z,3.93
2023-05-13T08:00:35.029Z,3.80
2023-05-13T08:03:04.132Z,3.73
2023-05-13T08:05:32.875Z,3.87
2023-05-13T08:08:03.945Z,3.90
2023-05-13T08:10:32.364Z,3.67
2023-05-13T08:13:01.288Z,3.67
2023-05-13T08:15:29.702Z,3.53
2023-05-13T08:17:58.238Z,3.30
2023-05-13T08:20:29.975Z,3.40
2023-05-13T08:22:59.031Z,3.27
2023-05-13T08:25:29.164Z,3.20
2023-05-13T08:27:58.403Z,3.07
2023-05-13T08:30:26.779Z,2.97
2023-05-13T08:32:55.227Z,3.37
2023-05-13T08:35:23.965Z,2.50
2023-05-13T08:37:52.731Z,3.33
2023-05-13T08:40:22.705Z,3.03
2023-05-13T08:42:54.836Z,3.07
2023-05-13T08:45:24.086Z,2.67
2023-05-13T08:47:57.351Z,2.70
2023-05-13T08:50:27.187Z,2.83
2023-05-13T08:52:56.188Z,2.60
2023-05-13T08:55:25.179Z,2.63
2023-05-13T08:57:55.294Z,2.93
2023-05-13T09:00:23.909Z,2.13
2023-05-13T09:02:52.838Z,2.50
2023-05-13T09:05:22.296Z,2.33
2023-05-13T09:07:50.873Z,2.63
2023-05-13T09:10:20.006Z,2.17
2023-05-13T09:12:50.523Z,2.37
2023-05-13T09:15:22.395Z,2.30
2023-05-13T09:17:53.516Z,1.97
2023-05-13T09:20:25.452Z,2.20
2023-05-13T09:22:56.774Z,2.10
2023-05-13T09:25:26.088Z,2.13
2023-05-13T09:27:58.728Z,2.10
2023-05-13T09:30:30.893Z,1.93
2023-05-13T09:33:11.032Z,2.10
2023-05-13T09:35:41.365Z,1.70
2023-05-13T09:38:17.705Z,1.80
2023-05-13T09:40:57.498Z,1.60
2023-05-13T09:43:28.496Z,2.10
2023-05-13T09:46:02.621Z,1.80
2023-05-13T09:48:34.748Z,1.77
2023-05-13T09:51:03.644Z,2.03
2023-05-13T09:53:33.580Z,1.70
2023-05-13T09:56:02.499Z,1.50
2023-05-13T09:58:31.141Z,1.73
2023-05-13T10:01:01.583Z,1.70
2023-05-13T10:03:31.731Z,1.90
2023-05-13T10:06:03.359Z,2.10
2023-05-13T10:08:32.732Z,1.80
2023-05-13T10:11:01.510Z,1.70
2023-05-13T10:13:32.881Z,1.67
2023-05-13T10:16:04.285Z,1.83
2023-05-13T10:18:33.305Z,2.17
2023-05-13T10:21:03.494Z,1.87
2023-05-13T10:23:34.039Z,1.80
2023-05-13T10:26:02.639Z,2.00
2023-05-13T10:28:31.953Z,1.63
2023-05-13T10:31:00.434Z,1.73
2023-05-13T10:33:30.506Z,1.90
2023-05-13T10:36:19.893Z,1.67
2023-05-13T10:39:07.444Z,2.30
2023-05-13T10:42:29.845Z,2.10
2023-05-13T10:44:59.843Z,2.10
2023-05-13T10:47:28.940Z,1.90
2023-05-13T10:49:58.930Z,1.70
2023-05-13T10:52:44.302Z,2.00
2023-05-13T10:55:21.498Z,1.70
2023-05-13T10:58:09.455Z,1.60
2023-05-13T11:00:39.358Z,1.80
2023-05-13T11:03:14.046Z,1.80
2023-05-13T11:05:47.198Z,1.90
2023-05-13T11:08:40.858Z,1.90
2023-05-13T11:11:33.208Z,1.90
2023-05-13T11:14:10.386Z,1.80
2023-05-13T11:16:39.555Z,1.67
2023-05-13T11:19:21.507Z,1.90
2023-05-13T11:21:54.183Z,1.70
2023-05-13T11:24:23.330Z,1.83
2023-05-13T11:26:56.392Z,1.93
2023-05-13T11:29:33.044Z,1.70
2023-05-13T11:32:03.896Z,2.03
2023-05-13T11:34:33.820Z,1.60
2023-05-13T11:37:12.156Z,1.60
2023-05-13T11:39:42.110Z,1.90
2023-05-13T11:42:12.082Z,1.60
2023-05-13T11:44:47.946Z,1.40
2023-05-13T11:47:16.961Z,2.00
2023-05-13T11:50:00.906Z,1.37
2023-05-13T11:52:29.392Z,1.47
2023-05-13T11:54:59.203Z,1.73
2023-05-13T11:57:32.535Z,1.77
2023-05-13T12:00:04.681Z,2.00
2023-05-13T12:02:37.608Z,1.87
2023-05-13T12:05:11.258Z,1.70
2023-05-13T12:07:40.628Z,1.70
2023-05-13T12:10:09.939Z,1.40
2023-05-13T12:12:40.861Z,1.70
2023-05-13T12:15:13.199Z,1.30
2023-05-13T12:17:42.182Z,1.50
2023-05-13T12:20:15.597Z,1.60
2023-05-13T12:22:57.647Z,1.60
2023-05-13T12:25:41.528Z,1.47
2023-05-13T12:28:13.180Z,1.40
2023-05-13T12:30:44.322Z,1.43
2023-05-13T12:33:17.737Z,1.90
2023-05-13T12:35:49.603Z,1.30
2023-05-13T12:38:19.397Z,1.33
2023-05-13T12:40:48.837Z,1.60
2023-05-13T12:43:19.594Z,1.53
2023-05-13T12:45:54.588Z,1.60
2023-05-13T12:48:26.181Z,1.52
2023-05-13T12:50:57.181Z,1.40
2023-05-13T12:53:25.715Z,1.40
2023-05-13T12:55:54.116Z,1.40
2023-05-13T12:58:22.469Z,1.43
2023-05-13T13:00:50.959Z,1.75
2023-05-13T13:03:21.769Z,1.20
2023-05-13T13:05:53.325Z,1.37
2023-05-13T13:08:23.024Z,1.53
2023-05-13T13:10:52.153Z,1.57
2023-05-13T13:13:20.744Z,1.45
2023-05-13T13:15:49.261Z,1.40
2023-05-13T13:18:17.682Z,1.50
2023-05-13T13:20:46.696Z,1.23
2023-05-13T13:23:15.828Z,1.53
2023-05-13T13:25:45.701Z,1.47
2023-05-13T13:28:14.090Z,1.13
2023-05-13T13:30:46.503Z,1.20
2023-05-13T13:33:16.950Z,1.20
2023-05-13T13:35:47.046Z,1.50
2023-05-13T13:38:15.730Z,1.50
2023-05-13T13:40:45.751Z,1.43
2023-05-13T13:43:14.480Z,1.50
2023-05-13T13:45:42.952Z,1.57
2023-05-13T13:48:11.448Z,1.40
2023-05-13T13:50:40.217Z,1.40
2023-05-13T13:53:08.617Z,1.50
2023-05-13T13:55:37.148Z,1.47
2023-05-13T13:58:07.127Z,1.23
2023-05-13T14:00:35.459Z,1.23
2023-05-13T14:03:04.922Z,1.20
2023-05-13T14:05:33.596Z,1.20
2023-05-13T14:08:02.388Z,1.10
2023-05-13T14:10:30.703Z,1.27
2023-05-13T14:12:59.146Z,1.57
2023-05-13T14:15:30.763Z,1.37
2023-05-13T14:17:59.706Z,0.97
2023-05-13T14:20:29.121Z,1.33
2023-05-13T14:22:57.630Z,1.23
2023-05-13T14:25:26.082Z,1.20
2023-05-13T14:27:54.779Z,1.03
2023-05-13T14:30:24.045Z,1.00
2023-05-13T14:32:53.986Z,0.90
2023-05-13T14:35:22.674Z,1.13
2023-05-13T14:37:51.258Z,1.10
2023-05-13T14:40:19.765Z,1.00
2023-05-13T14:42:49.434Z,0.97
2023-05-13T14:45:18.723Z,1.27
2023-05-13T14:47:47.331Z,1.27
2023-05-13T14:50:17.143Z,1.40
2023-05-13T14:52:46.087Z,1.13
2023-05-13T14:55:14.572Z,0.83
2023-05-13T14:57:43.322Z,0.90
2023-05-13T15:00:13.653Z,0.90
2023-05-13T15:02:42.186Z,1.10
2023-05-13T15:05:12.671Z,1.07
2023-05-13T15:07:42.597Z,1.20
2023-05-13T15:10:12.061Z,1.20
2023-05-13T15:12:40.552Z,1.00
2023-05-13T15:15:10.814Z,1.30
2023-05-13T15:17:40.078Z,1.00
2023-05-13T15:20:10.102Z,1.30
2023-05-13T15:22:38.771Z,1.20
2023-05-13T15:25:09.835Z,1.23
2023-05-13T15:27:38.690Z,1.13
2023-05-13T15:30:09.396Z,1.40
2023-05-13T15:32:37.821Z,1.27
2023-05-13T15:35:09.044Z,1.33
2023-05-13T15:37:38.079Z,1.30
2023-05-13T15:40:10.082Z,1.20
2023-05-13T15:42:39.237Z,1.20
2023-05-13T15:45:09.393Z,1.33
2023-05-13T15:47:38.094Z,1.40
2023-05-13T15:50:08.002Z,1.40
2023-05-13T15:52:36.558Z,1.17
2023-05-13T15:55:08.534Z,1.27
2023-05-13T15:57:37.033Z,1.10
2023-05-13T16:00:07.663Z,1.30
2023-05-13T16:02:39.458Z,1.40
2023-05-13T16:05:09.087Z,1.67
2023-05-13T16:07:37.556Z,1.60
2023-05-13T16:10:08.536Z,1.37
2023-05-13T16:12:37.388Z,1.30
2023-05-13T16:15:07.014Z,1.23
2023-05-13T16:17:35.796Z,1.40
2023-05-13T16:20:04.628Z,1.20
2023-05-13T16:22:37.809Z,1.43
2023-05-13T16:25:09.806Z,1.47
2023-05-13T16:27:40.152Z,1.30
2023-05-13T16:30:10.445Z,1.50
2023-05-13T16:32:39.211Z,1.47
2023-05-13T16:35:11.549Z,1.73
2023-05-13T16:37:39.933Z,1.77
2023-05-13T16:40:12.847Z,2.10
2023-05-13T16:42:41.372Z,1.80
2023-05-13T16:45:10.697Z,1.80
2023-05-13T16:47:39.384Z,1.67
2023-05-13T16:50:09.532Z,2.57
2023-05-13T16:52:37.972Z,1.97
2023-05-13T16:55:07.850Z,2.03
2023-05-13T16:57:37.928Z,2.07
2023-05-13T17:00:08.512Z,2.10
2023-05-13T17:02:36.893Z,2.00
2023-05-13T17:05:06.268Z,1.70
2023-05-13T17:07:34.660Z,1.60
2023-05-13T17:10:03.084Z,1.30
2023-05-13T17:12:31.485Z,1.10
2023-05-13T17:15:01.216Z,1.00
2023-05-13T17:17:29.680Z,1.13
2023-05-13T17:19:58.926Z,1.37
2023-05-13T17:22:27.235Z,1.20
2023-05-13T17:24:56.044Z,1.20
2023-05-13T17:27:24.558Z,1.20
2023-05-13T17:29:53.124Z,1.13
2023-05-13T17:32:23.289Z,0.90
2023-05-13T17:34:51.616Z,1.20
2023-05-13T17:37:20.270Z,1.17
2023-05-13T17:39:48.838Z,1.00
2023-05-13T17:42:17.449Z,1.20
2023-05-13T17:44:45.850Z,1.10
2023-05-13T17:47:14.653Z,1.33
2023-05-13T17:49:45.418Z,1.20
2023-05-13T17:52:13.774Z,1.20
2023-05-13T17:54:42.448Z,0.90
2023-05-13T17:57:11.246Z,1.10
2023-05-13T17:59:40.005Z,1.10
2023-05-13T18:02:08.638Z,1.20
2023-05-13T18:04:37.101Z,1.30
2023-05-13T18:07:06.928Z,1.17
2023-05-13T18:09:35.495Z,1.60
2023-05-13T18:12:03.911Z,1.03
2023-05-13T18:14:33.586Z,1.50
2023-05-13T18:17:02.086Z,1.40
2023-05-13T18:19:30.417Z,1.20
2023-05-13T18:21:58.876Z,1.20
2023-05-13T18:24:28.693Z,1.10
2023-05-13T18:26:57.021Z,1.37
2023-05-13T18:29:25.457Z,1.20
2023-05-13T18:31:53.977Z,1.30
2023-05-13T18:34:22.527Z,1.13
2023-05-13T18:36:52.187Z,1.30
2023-05-13T18:39:21.736Z,1.40
2023-05-13T18:41:51.870Z,1.37
2023-05-13T18:44:20.261Z,1.33
2023-05-13T18:46:48.789Z,1.37
2023-05-13T18:49:17.236Z,1.50
2023-05-13T18:51:46.293Z,1.20
2023-05-13T18:54:14.618Z,1.43
2023-05-13T18:56:43.384Z,1.50
2023-05-13T18:59:14.643Z,1.30
2023-05-13T19:01:43.465Z,1.50
2023-05-13T19:04:12.728Z,1.50
2023-05-13T19:06:41.231Z,1.50
2023-05-13T19:09:09.581Z,1.50
2023-05-13T19:11:37.969Z,1.63
2023-05-13T19:14:06.686Z,1.60
2023-05-13T19:16:36.588Z,1.37
2023-05-13T19:19:05.075Z,1.60
2023-05-13T19:21:34.784Z,1.63
2023-05-13T19:24:03.417Z,1.50
2023-05-13T19:26:32.077Z,1.63
2023-05-13T19:29:00.522Z,1.60
2023-05-13T19:31:29.865Z,1.70
2023-05-13T19:34:01.245Z,1.70
2023-05-13T19:36:29.895Z,1.53
2023-05-13T19:38:58.690Z,1.60
2023-05-13T19:41:27.127Z,1.90
2023-05-13T19:43:55.569Z,1.80
2023-05-13T19:46:24.044Z,1.57
2023-05-13T19:48:52.541Z,1.63
2023-05-13T19:51:22.411Z,1.50
2023-05-13T19:53:50.822Z,1.43
2023-05-13T19:56:19.467Z,1.40
2023-05-13T19:58:48.405Z,1.50
2023-05-13T20:01:17.248Z,1.50
2023-05-13T20:03:46.006Z,1.80
2023-05-13T20:06:14.789Z,1.50
2023-05-13T20:08:44.582Z,1.50
2023-05-13T20:11:13.141Z,1.30
2023-05-13T20:13:41.753Z,1.43
2023-05-13T20:16:10.415Z,1.80
2023-05-13T20:21:25.054Z,1.90
2023-05-13T20:23:55.196Z,2.00
2023-05-13T20:26:25.817Z,2.50
2023-05-13T20:28:54.259Z,2.80
2023-05-13T20:31:23.009Z,2.73
2023-05-13T20:33:51.513Z,2.57
2023-05-13T20:36:19.939Z,2.53
2023-05-13T20:38:48.652Z,2.70
2023-05-13T20:41:18.442Z,2.60
2023-05-13T20:43:47.167Z,2.77
2023-05-13T20:46:17.004Z,2.50
2023-05-13T20:48:45.739Z,2.67
2023-05-13T20:51:14.151Z,2.63
2023-05-13T20:53:42.715Z,2.80
2023-05-13T20:56:11.004Z,2.97
2023-05-13T20:58:40.744Z,2.93
2023-05-13T21:01:09.222Z,3.23
2023-05-13T21:03:38.071Z,2.73
2023-05-13T21:06:06.573Z,2.53
2023-05-13T21:08:36.876Z,2.50
2023-05-13T21:11:07.284Z,2.40
2023-05-13T21:13:36.463Z,2.80
2023-05-13T21:16:07.509Z,3.20
2023-05-13T21:18:35.888Z,3.40
2023-05-13T21:21:08.705Z,3.00
2023-05-13T21:23:37.821Z,3.30
2023-05-13T21:26:07.218Z,3.53
2023-05-13T21:28:35.799Z,3.30
2023-05-13T21:31:06.135Z,3.40
2023-05-13T21:33:35.021Z,3.47
2023-05-13T21:36:03.385Z,3.30
2023-05-13T21:38:32.516Z,3.60
2023-05-13T21:41:01.112Z,4.00
2023-05-13T21:43:29.736Z,3.70
2023-05-13T21:45:58.086Z,3.70
2023-05-13T21:48:28.191Z,3.13
2023-05-13T21:50:57.065Z,3.00
2023-05-13T21:53:25.557Z,2.47
2023-05-13T21:55:55.696Z,2.40
2023-05-13T21:58:24.377Z,2.00
2023-05-13T22:00:53.746Z,2.00
2023-05-13T22:03:22.423Z,1.90
2023-05-13T22:05:52.252Z,2.00
2023-05-13T22:08:21.140Z,1.80
2023-05-13T22:10:49.760Z,2.17
2023-05-13T22:13:18.278Z,1.93
2023-05-13T22:15:47.014Z,2.37
2023-05-13T22:18:16.091Z,2.27
2023-05-13T22:20:44.914Z,2.07
2023-05-13T22:23:15.095Z,2.40
2023-05-13T22:25:43.367Z,2.20
2023-05-13T22:28:11.848Z,2.50
2023-05-13T22:30:40.167Z,2.80
2023-05-13T22:33:08.862Z,2.40
2023-05-13T22:35:37.420Z,2.80
2023-05-13T22:38:05.884Z,2.90
2023-05-13T22:40:35.857Z,2.90
2023-05-13T22:43:04.529Z,2.60
2023-05-13T22:45:33.042Z,2.47
2023-05-13T22:48:01.715Z,3.00
2023-05-13T22:50:30.458Z,2.70
2023-05-13T22:52:59.141Z,2.63
2023-05-13T22:55:27.506Z,2.97
2023-05-13T22:57:57.374Z,2.47
2023-05-13T23:00:26.046Z,2.70
2023-05-13T23:02:54.617Z,2.70
2023-05-13T23:05:23.134Z,2.57
2023-05-13T23:07:51.604Z,2.73
2023-05-13T23:10:20.523Z,2.70
2023-05-13T23:12:48.950Z,2.80
2023-05-13T23:15:19.306Z,2.67
2023-05-13T23:17:47.758Z,2.50
2023-05-13T23:20:16.502Z,2.60
2023-05-13T23:22:44.816Z,2.53
2023-05-13T23:25:13.505Z,2.73
2023-05-13T23:27:41.891Z,2.50
2023-05-13T23:30:12.012Z,2.60
2023-05-13T23:32:41.842Z,2.80
2023-05-13T23:35:11.046Z,2.80
2023-05-13T23:37:39.557Z,2.80
2023-05-13T23:40:09.957Z,2.80
2023-05-13T23:42:38.285Z,2.60
2023-05-13T23:45:08.153Z,2.73
2023-05-13T23:47:36.568Z,2.23
2023-05-13T23:50:09.212Z,2.63
2023-05-13T23:52:37.651Z,2.47
2023-05-13T23:55:07.517Z,2.40
2023-05-13T23:57:35.842Z,2.50
